createdAt,value
2019-03-28T00:00:13.044Z,48.78
2019-03-28T00:02:46.622Z,49.08
2019-03-28T00:05:18.879Z,49.85
2019-03-28T00:07:51.043Z,48.85
2019-03-28T00:21:42.198Z,51.15
2019-03-28T00:24:15.896Z,50.48
2019-03-28T00:26:48.309Z,56.60
2019-03-28T00:29:20.418Z,48.80
2019-03-28T00:31:52.765Z,47.93
2019-03-28T00:34:24.868Z,49.83
2019-03-28T00:36:57.143Z,47.15
2019-03-28T00:39:29.363Z,45.85
2019-03-28T00:42:01.763Z,45.52
2019-03-28T00:44:34.115Z,47.98
2019-03-28T00:47:06.249Z,46.13
2019-03-28T00:49:38.413Z,47.05
2019-03-28T00:52:10.688Z,45.50
2019-03-28T00:54:42.878Z,47.15
2019-03-28T00:57:14.942Z,46.35
2019-03-28T00:59:47.262Z,47.65
2019-03-28T01:02:19.701Z,50.92
2019-03-28T01:04:52.088Z,47.75
2019-03-28T01:07:24.381Z,47.60
2019-03-28T01:09:57.198Z,42.27
2019-03-28T01:12:30.940Z,41.28
2019-03-28T01:15:03.175Z,42.48
2019-03-28T01:17:35.326Z,44.33
2019-03-28T01:20:08.637Z,42.88
2019-03-28T01:22:40.796Z,38.73
2019-03-28T01:25:12.983Z,36.00
2019-03-28T01:27:45.057Z,38.25
2019-03-28T01:30:17.348Z,36.35
2019-03-28T01:32:49.773Z,34.38
2019-03-28T01:35:21.878Z,35.35
2019-03-28T01:37:54.399Z,37.35
2019-03-28T01:40:26.647Z,34.40
2019-03-28T01:42:58.853Z,35.88
2019-03-28T01:45:31.035Z,34.33
2019-03-28T01:48:03.293Z,31.12
2019-03-28T01:50:36.121Z,32.03
2019-03-28T01:53:08.523Z,32.08
2019-03-28T01:55:40.682Z,30.83
2019-03-28T01:58:13.442Z,30.48
2019-03-28T02:00:45.770Z,30.35
2019-03-28T02:03:17.918Z,30.25
2019-03-28T02:05:49.952Z,29.70
2019-03-28T02:08:24.749Z,29.70
2019-03-28T02:10:55.671Z,28.98
2019-03-28T02:13:28.192Z,27.17
2019-03-28T02:16:00.518Z,27.13
2019-03-28T02:18:32.689Z,26.83
2019-03-28T02:21:05.008Z,27.42
2019-03-28T02:23:37.375Z,29.82
2019-03-28T02:26:09.601Z,27.70
2019-03-28T02:28:41.962Z,30.23
2019-03-28T02:31:14.223Z,29.30
2019-03-28T02:33:46.299Z,30.60
2019-03-28T02:36:18.652Z,28.65
2019-03-28T02:38:50.838Z,28.73
2019-03-28T02:41:22.972Z,29.55
2019-03-28T02:43:55.179Z,28.43
2019-03-28T02:46:27.425Z,29.92
2019-03-28T02:48:59.672Z,31.57
2019-03-28T02:51:32.191Z,32.40
2019-03-28T02:54:05.480Z,28.62
2019-03-28T02:56:38.870Z,29.20
2019-03-28T02:59:11.019Z,27.87
2019-03-28T03:01:43.222Z,29.32
2019-03-28T03:04:15.491Z,29.77
2019-03-28T03:06:47.831Z,28.35
2019-03-28T03:09:20.015Z,29.00
2019-03-28T03:11:52.185Z,27.75
2019-03-28T03:14:24.375Z,27.45
2019-03-28T03:16:56.717Z,26.07
2019-03-28T03:19:28.976Z,27.30
2019-03-28T03:22:01.350Z,27.05
2019-03-28T03:24:33.541Z,26.80
2019-03-28T03:27:05.762Z,26.97
2019-03-28T03:29:38.428Z,26.25
2019-03-28T03:32:10.782Z,26.53
2019-03-28T03:34:43.148Z,25.80
2019-03-28T03:37:15.305Z,25.60
2019-03-28T03:39:47.661Z,26.65
2019-03-28T03:42:20.036Z,24.60
2019-03-28T03:44:52.600Z,25.32
2019-03-28T03:47:24.731Z,26.40
2019-03-28T03:49:57.055Z,26.37
2019-03-28T03:52:29.657Z,26.87
2019-03-28T03:55:01.906Z,26.20
2019-03-28T03:57:34.250Z,27.02
2019-03-28T04:00:09.482Z,25.15
2019-03-28T04:02:41.898Z,25.00
2019-03-28T04:05:14.149Z,25.45
2019-03-28T04:07:46.322Z,24.90
2019-03-28T04:10:18.595Z,26.65
2019-03-28T04:12:50.766Z,27.30
2019-03-28T04:15:23.107Z,27.07
2019-03-28T04:17:55.344Z,26.73
2019-03-28T04:20:27.624Z,26.42
2019-03-28T04:22:59.942Z,26.57
2019-03-28T04:25:32.346Z,26.15
2019-03-28T04:28:04.716Z,26.95
2019-03-28T04:30:37.022Z,26.93
2019-03-28T04:33:09.165Z,27.73
2019-03-28T04:35:41.573Z,26.70
2019-03-28T04:38:13.687Z,26.95
2019-03-28T04:40:46.217Z,27.02
2019-03-28T04:43:18.516Z,26.82
2019-03-28T04:45:50.954Z,27.20
2019-03-28T04:48:23.068Z,27.73
2019-03-28T04:50:55.418Z,28.57
2019-03-28T04:53:29.588Z,28.47
2019-03-28T04:56:01.467Z,28.80
2019-03-28T04:58:43.711Z,28.52
2019-03-28T05:01:07.004Z,28.02
2019-03-28T05:03:39.470Z,28.60
2019-03-28T05:06:11.991Z,28.45
2019-03-28T05:08:44.045Z,28.00
2019-03-28T05:11:16.135Z,28.52
2019-03-28T05:13:48.184Z,27.62
2019-03-28T05:16:20.639Z,27.77
2019-03-28T05:18:52.908Z,27.57
2019-03-28T05:21:24.955Z,27.50
2019-03-28T05:23:57.291Z,27.52
2019-03-28T05:26:29.432Z,27.80
2019-03-28T05:29:01.778Z,27.27
2019-03-28T05:31:34.388Z,27.42
2019-03-28T05:34:08.354Z,26.60
2019-03-28T05:36:40.744Z,26.43
2019-03-28T05:39:13.004Z,26.52
2019-03-28T05:41:45.041Z,26.07
2019-03-28T05:44:17.268Z,25.80
2019-03-28T05:46:49.538Z,25.65
2019-03-28T05:49:22.718Z,26.17
2019-03-28T05:51:55.026Z,27.37
2019-03-28T05:54:27.452Z,27.48
2019-03-28T05:56:59.610Z,26.35
2019-03-28T05:59:31.855Z,27.07
2019-03-28T06:02:04.089Z,25.68
2019-03-28T06:04:36.112Z,25.77
2019-03-28T06:07:08.898Z,26.85
2019-03-28T06:09:41.245Z,26.95
2019-03-28T06:12:13.452Z,26.65
2019-03-28T06:14:45.459Z,27.17
2019-03-28T06:17:17.866Z,27.30
2019-03-28T06:19:50.070Z,31.70
2019-03-28T06:22:22.487Z,26.10
2019-03-28T06:24:54.963Z,26.85
2019-03-28T06:27:27.192Z,28.00
2019-03-28T06:30:01.861Z,26.33
2019-03-28T06:32:42.932Z,38.40
2019-03-28T06:35:07.340Z,33.15
2019-03-28T06:37:39.531Z,26.23
2019-03-28T06:40:12.599Z,33.35
2019-03-28T06:42:44.936Z,32.05
2019-03-28T06:45:17.275Z,38.95
2019-03-28T06:47:49.668Z,26.20
2019-03-28T06:50:21.860Z,26.82
2019-03-28T06:52:54.124Z,26.90
2019-03-28T06:55:26.727Z,26.62
2019-03-28T06:57:58.998Z,26.73
2019-03-28T07:00:31.035Z,30.12
2019-03-28T07:03:03.430Z,26.23
2019-03-28T07:05:35.618Z,27.45
2019-03-28T07:08:07.918Z,27.10
2019-03-28T07:10:40.238Z,28.60
2019-03-28T07:13:12.306Z,26.80
2019-03-28T07:15:44.826Z,31.90
2019-03-28T07:18:17.253Z,29.90
2019-03-28T07:20:49.476Z,25.95
2019-03-28T07:23:21.742Z,26.82
2019-03-28T07:25:54.072Z,26.62
2019-03-28T07:28:26.469Z,25.90
2019-03-28T07:30:58.614Z,28.05
2019-03-28T07:33:30.884Z,24.72
2019-03-28T07:36:03.009Z,25.92
2019-03-28T07:38:36.122Z,25.48
2019-03-28T07:41:08.436Z,31.85
2019-03-28T07:43:40.696Z,28.65
2019-03-28T07:46:12.927Z,26.03
2019-03-28T07:48:46.288Z,30.88
2019-03-28T07:51:18.914Z,25.40
2019-03-28T07:53:52.258Z,26.20
2019-03-28T07:56:24.434Z,28.47
2019-03-28T07:58:56.587Z,42.30
2019-03-28T08:01:28.708Z,30.23
2019-03-28T08:04:00.985Z,26.97
2019-03-28T08:06:33.217Z,26.20
2019-03-28T08:09:07.039Z,26.42
2019-03-28T08:11:39.444Z,26.13
2019-03-28T08:14:11.777Z,27.10
2019-03-28T08:16:43.880Z,26.15
2019-03-28T08:19:16.249Z,26.37
2019-03-28T08:21:48.543Z,27.75
2019-03-28T08:24:20.803Z,27.05
2019-03-28T08:26:54.114Z,30.02
2019-03-28T08:29:26.370Z,29.23
2019-03-28T08:31:58.887Z,31.33
2019-03-28T08:34:31.478Z,29.95
2019-03-28T08:37:04.192Z,34.23
2019-03-28T08:39:36.549Z,29.60
2019-03-28T08:42:08.643Z,35.13
2019-03-28T08:44:41.025Z,33.25
2019-03-28T08:47:13.352Z,34.87
2019-03-28T08:49:45.635Z,30.00
2019-03-28T08:52:17.723Z,26.77
2019-03-28T08:54:49.967Z,23.57
2019-03-28T08:57:22.443Z,29.77
2019-03-28T08:59:54.778Z,21.40
2019-03-28T09:02:27.125Z,18.50
2019-03-28T09:04:59.319Z,15.25
2019-03-28T09:07:31.581Z,10.95
2019-03-28T09:10:03.760Z,9.73
2019-03-28T09:12:35.946Z,8.25
2019-03-28T09:15:08.840Z,9.10
2019-03-28T09:17:41.198Z,10.57
2019-03-28T09:20:13.522Z,12.17
2019-03-28T09:22:45.982Z,16.27
2019-03-28T09:25:18.087Z,19.50
2019-03-28T09:27:51.709Z,21.90
2019-03-28T09:30:26.529Z,22.15
2019-03-28T09:32:58.588Z,15.17
2019-03-28T09:35:32.216Z,10.68
2019-03-28T09:38:04.515Z,11.40
2019-03-28T09:40:36.686Z,12.98
2019-03-28T09:43:08.891Z,12.37
2019-03-28T09:45:40.947Z,11.85
2019-03-28T09:48:13.137Z,18.48
2019-03-28T09:50:45.614Z,18.90
2019-03-28T09:53:17.886Z,13.80
2019-03-28T09:55:50.047Z,15.58
2019-03-28T09:58:22.658Z,17.07
2019-03-28T10:01:02.534Z,27.07
2019-03-28T10:03:30.033Z,16.37
2019-03-28T10:06:02.105Z,15.77
2019-03-28T10:08:34.126Z,39.75
2019-03-28T10:11:06.398Z,33.53
2019-03-28T10:13:38.743Z,14.40
2019-03-28T10:16:11.116Z,38.83
2019-03-28T10:18:43.595Z,16.73
2019-03-28T10:21:16.160Z,21.12
2019-03-28T10:23:48.479Z,19.15
2019-03-28T10:26:20.540Z,19.27
2019-03-28T10:28:52.572Z,16.73
2019-03-28T10:31:24.641Z,17.30
2019-03-28T10:33:56.763Z,27.90
2019-03-28T10:36:29.025Z,18.75
2019-03-28T10:39:01.295Z,43.30
2019-03-28T10:41:34.837Z,17.95
2019-03-28T10:44:06.953Z,17.60
2019-03-28T10:46:39.232Z,18.50
2019-03-28T10:49:11.400Z,17.55
2019-03-28T10:51:43.767Z,16.52
2019-03-28T10:54:20.467Z,17.25
2019-03-28T10:56:52.044Z,18.20
2019-03-28T10:59:23.923Z,18.02
2019-03-28T11:01:56.837Z,17.75
2019-03-28T11:04:28.847Z,49.57
2019-03-28T11:07:00.986Z,20.62
2019-03-28T11:09:33.203Z,19.35
2019-03-28T11:12:05.478Z,26.50
2019-03-28T11:14:37.622Z,17.95
2019-03-28T11:17:09.766Z,17.40
2019-03-28T11:19:42.006Z,28.62
2019-03-28T11:22:14.295Z,38.40
2019-03-28T11:24:46.609Z,24.37
2019-03-28T11:27:21.090Z,21.90
2019-03-28T11:29:53.432Z,20.00
2019-03-28T11:32:26.829Z,19.67
2019-03-28T11:34:58.954Z,21.65
2019-03-28T11:37:31.178Z,20.37
2019-03-28T11:40:03.427Z,19.85
2019-03-28T11:42:35.570Z,24.57
2019-03-28T11:45:09.820Z,21.10
2019-03-28T11:47:42.342Z,22.25
2019-03-28T11:50:16.990Z,19.87
2019-03-28T11:52:48.744Z,57.23
2019-03-28T11:55:20.862Z,18.80
2019-03-28T11:57:56.177Z,30.65
2019-03-28T12:00:27.021Z,33.02
2019-03-28T12:03:00.354Z,23.07
2019-03-28T12:05:32.829Z,22.03
2019-03-28T12:08:05.403Z,20.55
2019-03-28T12:10:38.292Z,20.10
2019-03-28T12:13:11.129Z,20.83
2019-03-28T12:15:43.290Z,19.32
2019-03-28T12:18:15.445Z,18.95
2019-03-28T12:20:47.647Z,27.65
2019-03-28T12:23:20.000Z,20.12
2019-03-28T12:25:52.063Z,19.23
2019-03-28T12:28:24.234Z,19.00
2019-03-28T12:30:56.271Z,17.50
2019-03-28T12:33:28.328Z,19.12
2019-03-28T12:36:00.478Z,19.05
2019-03-28T12:38:33.158Z,47.95
2019-03-28T12:41:05.380Z,30.97
2019-03-28T12:43:37.542Z,55.90
2019-03-28T12:46:09.584Z,18.80
2019-03-28T12:48:41.863Z,18.07
2019-03-28T12:51:13.910Z,17.15
2019-03-28T12:53:47.528Z,17.92
2019-03-28T12:56:19.704Z,16.65
2019-03-28T12:58:51.777Z,16.97
2019-03-28T13:01:24.492Z,24.75
2019-03-28T13:03:56.735Z,18.20
2019-03-28T13:06:28.991Z,17.77
2019-03-28T13:09:01.256Z,18.85
2019-03-28T13:11:34.544Z,18.32
2019-03-28T13:14:06.606Z,16.95
2019-03-28T13:16:38.776Z,18.12
2019-03-28T13:19:10.990Z,18.90
2019-03-28T13:21:43.257Z,19.57
2019-03-28T13:24:15.586Z,26.45
2019-03-28T13:26:47.624Z,18.45
2019-03-28T13:29:19.917Z,22.65
2019-03-28T13:31:52.182Z,34.90
2019-03-28T13:34:24.469Z,21.00
2019-03-28T13:36:56.734Z,16.70
2019-03-28T13:39:29.015Z,18.42
2019-03-28T13:42:01.200Z,18.10
2019-03-28T13:44:33.153Z,18.15
2019-03-28T13:47:05.515Z,18.73
2019-03-28T13:49:37.786Z,18.10
2019-03-28T13:52:10.443Z,29.65
2019-03-28T13:54:42.876Z,43.30
2019-03-28T13:57:15.207Z,21.42
2019-03-28T13:59:47.293Z,46.23
2019-03-28T14:02:20.182Z,21.80
2019-03-28T14:04:52.563Z,22.82
2019-03-28T14:07:26.091Z,22.35
2019-03-28T14:09:58.667Z,22.50
2019-03-28T14:12:30.887Z,23.45
2019-03-28T14:15:04.059Z,22.95
2019-03-28T14:17:36.118Z,24.00
2019-03-28T14:20:08.375Z,24.33
2019-03-28T14:22:40.449Z,24.95
2019-03-28T14:25:12.846Z,25.60
2019-03-28T14:27:44.955Z,27.42
2019-03-28T14:30:17.215Z,38.10
2019-03-28T14:32:53.491Z,31.20
2019-03-28T14:35:23.286Z,35.33
2019-03-28T14:37:55.428Z,25.77
2019-03-28T14:40:28.645Z,26.63
2019-03-28T14:43:00.997Z,26.33
2019-03-28T14:45:32.956Z,27.75
2019-03-28T14:48:06.797Z,29.05
2019-03-28T14:50:40.476Z,28.75
2019-03-28T14:53:12.713Z,30.82
2019-03-28T14:55:45.137Z,33.60
2019-03-28T14:58:17.269Z,34.43
2019-03-28T15:00:50.857Z,51.25
2019-03-28T15:03:27.439Z,29.75
2019-03-28T15:05:56.768Z,29.30
2019-03-28T15:08:30.055Z,28.35
2019-03-28T15:11:02.308Z,30.75
2019-03-28T15:13:34.532Z,29.63
2019-03-28T15:16:06.653Z,28.62
2019-03-28T15:18:39.324Z,31.70
2019-03-28T15:21:11.618Z,33.10
2019-03-28T15:23:43.749Z,34.08
2019-03-28T15:26:16.132Z,35.67
2019-03-28T15:28:48.318Z,39.27
2019-03-28T15:31:21.974Z,57.33
2019-03-28T15:33:54.133Z,43.42
2019-03-28T15:36:27.446Z,38.23
2019-03-28T15:39:00.001Z,38.80
2019-03-28T15:41:32.423Z,52.50
2019-03-28T15:44:05.001Z,49.18
2019-03-28T15:46:37.435Z,40.97
2019-03-28T15:49:09.810Z,36.55
2019-03-28T15:51:42.082Z,36.73
2019-03-28T15:54:14.328Z,35.70
2019-03-28T15:56:46.855Z,36.73
2019-03-28T15:59:19.306Z,35.33
2019-03-28T16:01:52.628Z,37.15
2019-03-28T16:04:25.093Z,39.53
2019-03-28T16:06:57.570Z,40.28
2019-03-28T16:09:30.250Z,39.20
2019-03-28T16:12:03.719Z,38.55
2019-03-28T16:14:35.906Z,41.00
2019-03-28T16:17:08.506Z,38.67
2019-03-28T16:19:40.629Z,43.10
2019-03-28T16:22:15.529Z,42.27
2019-03-28T16:24:46.657Z,43.48
2019-03-28T16:27:19.127Z,44.25
2019-03-28T16:29:54.201Z,42.70
2019-03-28T16:32:24.643Z,44.77
2019-03-28T16:34:56.698Z,44.90
2019-03-28T16:37:28.887Z,46.83
2019-03-28T16:40:01.150Z,45.30
2019-03-28T16:42:33.328Z,45.33
2019-03-28T16:45:07.184Z,45.05
2019-03-28T16:47:39.262Z,46.20
2019-03-28T16:50:11.329Z,45.33
2019-03-28T16:52:43.807Z,57.23
2019-03-28T16:55:25.851Z,48.25
2019-03-28T16:57:49.978Z,49.23
2019-03-28T17:00:23.524Z,45.48
2019-03-28T17:02:55.854Z,43.92
2019-03-28T17:05:28.338Z,47.43
2019-03-28T17:08:00.598Z,48.42
2019-03-28T17:10:35.673Z,55.05
2019-03-28T17:13:08.215Z,39.65
2019-03-28T17:15:40.292Z,41.17
2019-03-28T17:18:12.469Z,46.50
2019-03-28T17:20:44.927Z,48.83
2019-03-28T17:23:17.095Z,45.65
2019-03-28T17:25:49.237Z,50.40
2019-03-28T17:28:21.625Z,43.30
2019-03-28T17:30:53.883Z,45.67
2019-03-28T17:33:25.956Z,39.97
2019-03-28T17:35:58.079Z,41.75
2019-03-28T17:38:31.617Z,38.08
2019-03-28T17:41:06.386Z,40.78
2019-03-28T17:43:37.234Z,36.10
2019-03-28T17:46:12.180Z,39.42
2019-03-28T17:48:43.017Z,38.20
2019-03-28T17:51:15.213Z,37.25
2019-03-28T17:53:47.465Z,39.73
2019-03-28T17:56:19.614Z,40.30
2019-03-28T17:58:51.996Z,41.37
2019-03-28T18:01:24.245Z,41.50
2019-03-28T18:03:56.422Z,31.97
2019-03-28T18:06:28.866Z,52.60
2019-03-28T18:09:01.153Z,40.92
2019-03-28T18:11:34.715Z,38.67
2019-03-28T18:14:07.849Z,38.05
2019-03-28T18:16:41.090Z,31.73
2019-03-28T18:19:13.267Z,32.00
2019-03-28T18:21:46.566Z,30.77
2019-03-28T18:24:18.839Z,31.52
2019-03-28T18:26:51.765Z,33.20
2019-03-28T18:29:24.377Z,32.08
2019-03-28T18:31:56.405Z,32.05
2019-03-28T18:34:28.870Z,32.45
2019-03-28T18:37:01.311Z,31.62
2019-03-28T18:39:33.471Z,32.50
2019-03-28T18:42:05.703Z,31.20
2019-03-28T18:44:37.996Z,32.53
2019-03-28T18:47:10.082Z,31.42
2019-03-28T18:49:42.344Z,31.25
2019-03-28T18:52:14.606Z,31.40
2019-03-28T18:54:46.685Z,30.72
2019-03-28T18:57:19.839Z,31.60
2019-03-28T18:59:52.230Z,30.37
2019-03-28T19:02:24.276Z,29.90
2019-03-28T19:04:56.612Z,29.12
2019-03-28T19:07:29.177Z,28.23
2019-03-28T19:10:01.489Z,44.10
2019-03-28T19:12:33.789Z,40.33
2019-03-28T19:15:06.974Z,37.85
2019-03-28T19:17:39.247Z,40.88
2019-03-28T19:20:12.476Z,28.62
2019-03-28T19:22:44.789Z,26.90
2019-03-28T19:25:17.070Z,28.10
2019-03-28T19:27:49.116Z,25.80
2019-03-28T19:30:23.749Z,29.95
2019-03-28T19:32:55.787Z,43.08
2019-03-28T19:35:33.239Z,59.80
2019-03-28T19:38:01.508Z,29.18
2019-03-28T19:40:33.810Z,29.80
2019-03-28T19:43:19.300Z,29.27
2019-03-28T19:45:39.754Z,30.10
2019-03-28T19:48:11.908Z,29.85
2019-03-28T19:50:44.059Z,30.27
2019-03-28T19:53:16.084Z,30.08
2019-03-28T19:55:48.245Z,31.85
2019-03-28T19:58:20.474Z,32.80
2019-03-28T20:00:52.782Z,33.80
2019-03-28T20:03:25.172Z,32.83
2019-03-28T20:05:57.460Z,31.17
2019-03-28T20:08:30.302Z,35.10
2019-03-28T20:11:02.634Z,31.43
2019-03-28T20:13:34.891Z,33.40
2019-03-28T20:16:07.071Z,31.85
2019-03-28T20:18:39.112Z,33.60
2019-03-28T20:21:11.342Z,33.75
2019-03-28T20:23:43.464Z,33.93
2019-03-28T20:26:19.450Z,33.00
2019-03-28T20:28:49.694Z,34.65
2019-03-28T20:31:22.050Z,35.73
2019-03-28T20:33:54.388Z,32.58
2019-03-28T20:36:37.401Z,33.45
2019-03-28T20:39:04.276Z,33.58
2019-03-28T20:41:34.783Z,33.85
2019-03-28T20:44:06.906Z,34.33
2019-03-28T20:46:40.822Z,33.15
2019-03-28T20:49:12.742Z,33.90
2019-03-28T20:51:45.013Z,33.73
2019-03-28T20:54:17.386Z,34.40
2019-03-28T20:56:49.722Z,34.48
2019-03-28T20:59:21.753Z,34.27
2019-03-28T21:01:55.075Z,34.53
2019-03-28T21:04:31.558Z,34.67
2019-03-28T21:07:00.805Z,34.65
2019-03-28T21:09:33.238Z,35.30
2019-03-28T21:12:05.520Z,36.97
2019-03-28T21:14:37.767Z,37.43
2019-03-28T21:17:09.842Z,39.42
2019-03-28T21:19:42.106Z,34.85
2019-03-28T21:22:14.514Z,35.88
2019-03-28T21:24:46.760Z,35.88
2019-03-28T21:27:20.752Z,35.15
2019-03-28T21:29:52.492Z,34.80
2019-03-28T21:32:24.789Z,35.13
2019-03-28T21:34:57.028Z,36.17
2019-03-28T21:37:29.284Z,35.40
2019-03-28T21:40:01.692Z,35.38
2019-03-28T21:42:34.054Z,36.63
2019-03-28T21:45:06.586Z,37.98
2019-03-28T21:47:38.666Z,35.98
2019-03-28T21:50:11.419Z,36.33
2019-03-28T21:52:43.589Z,37.25
2019-03-28T21:55:16.820Z,36.85
2019-03-28T21:57:49.087Z,37.73
2019-03-28T22:00:21.436Z,38.92
2019-03-28T22:02:53.883Z,37.65
2019-03-28T22:05:28.676Z,38.98
2019-03-28T22:07:59.557Z,39.18
2019-03-28T22:10:32.120Z,36.65
2019-03-28T22:13:04.442Z,38.88
2019-03-28T22:15:37.869Z,39.00
2019-03-28T22:18:10.133Z,38.40
2019-03-28T22:20:42.316Z,39.17
2019-03-28T22:23:14.686Z,39.38
2019-03-28T22:25:46.967Z,38.17
2019-03-28T22:28:19.331Z,39.23
2019-03-28T22:30:51.554Z,44.18
2019-03-28T22:33:23.719Z,41.35
2019-03-28T22:35:56.136Z,42.03
2019-03-28T22:38:28.509Z,51.00
2019-03-28T22:41:00.770Z,47.13
2019-03-28T22:43:33.585Z,43.87
2019-03-28T22:46:05.731Z,45.48
2019-03-28T22:48:39.893Z,41.88
2019-03-28T22:51:11.519Z,47.15
2019-03-28T22:53:43.955Z,48.80
2019-03-28T22:56:17.210Z,61.70
2019-03-28T22:58:49.488Z,49.95
2019-03-28T23:01:22.816Z,49.60
2019-03-28T23:03:56.326Z,44.53
2019-03-28T23:06:28.696Z,42.05
2019-03-28T23:09:01.094Z,48.48
2019-03-28T23:11:34.859Z,47.67
2019-03-28T23:14:07.149Z,43.73
2019-03-28T23:16:39.277Z,44.38
2019-03-28T23:19:12.105Z,45.48
2019-03-28T23:21:44.484Z,46.30
2019-03-28T23:24:17.731Z,45.33
2019-03-28T23:26:50.248Z,44.67
2019-03-28T23:29:22.632Z,47.00
2019-03-28T23:31:54.853Z,45.60
2019-03-28T23:34:27.267Z,49.75
2019-03-28T23:36:59.502Z,47.30
2019-03-28T23:39:31.770Z,47.03
2019-03-28T23:42:04.035Z,47.30
2019-03-28T23:44:36.335Z,48.58
2019-03-28T23:47:08.683Z,49.27
2019-03-28T23:49:41.043Z,46.20
2019-03-28T23:52:13.176Z,43.48
2019-03-28T23:54:45.468Z,45.75
2019-03-28T23:57:17.844Z,43.23
2019-03-28T23:59:50.068Z,44.73
